Terminal Aerodrome Forecast
Issued by NWS Wilmington, NC

Current Version | Previous Version | Text Only | Print | Product List | Glossary On
Versions: 1 2 3 4 5 6 7 8 9 10 11 12 13 14 15 16 17 18 19
566
FTUS42 KILM 211120
TAFILM
TAF
KILM 211120Z 2112/2212 31005KT P6SM FEW080
     FM211800 13005KT P6SM VCTS SCT050CB
     FM220000 VRB03KT P6SM SCT050
     FM220400 00000KT P6SM SCT250=

USA.gov is the U.S. government's official web portal to all federal, state and local government web resources and services.